Terminal Aerodrome Forecast
Issued by NWS State College, PA

Current Version | Previous Version | Text Only | Print | Product List | Glossary On
Versions: 1 2 3 4 5 6 7 8 9 10 11 12 13 14 15 16 17 18 19 20 21 22 23 24 25 26 27 28 29
000
FTUS41 KCTP 042339
TAFIPT
TAF
KIPT 042339Z 0500/0524 11004KT P6SM SCT050 OVC120
     FM050400 14005KT P6SM OVC035
     FM050600 11007KT 4SM -SN BR OVC015
     FM051300 27010KT 5SM -SHRA BR OVC030
     FM051500 28012KT P6SM BKN045=

USA.gov is the U.S. government's official web portal to all federal, state and local government web resources and services.